Time;durP1;ratioP1;P1;durP2;ratioP2;P2;SDS_P1;SDS_P2;PMS_P1;PMS_P2;Temp;Humidity;BMP_temperature;BMP_pressure;BME280_temperature;BME280_humidity;BME280_pressure;Samples;Min_cycle;Max_cycle;Signal;HPM_P1;HPM_P2
2022/05/09 00:01:06;;;;;;;28.13;25.17;;;16.40;94.10;;;;;;5076157;28;20220;-69
2022/05/09 00:03:36;;;;;;;26.53;23.50;;;16.40;94.20;;;;;;5076290;28;20212;-68
2022/05/09 00:06:03;;;;;;;27.50;23.73;;;16.40;94.20;;;;;;5075657;28;20550;-69
2022/05/09 00:08:31;;;;;;;28.77;23.90;;;16.30;94.20;;;;;;5078192;28;20209;-68
2022/05/09 00:10:59;;;;;;;27.20;24.20;;;16.30;94.20;;;;;;5077867;28;20214;-68
2022/05/09 00:13:26;;;;;;;31.90;25.43;;;16.30;94.20;;;;;;5098616;28;20209;-68
2022/05/09 00:15:53;;;;;;;34.60;26.97;;;16.20;94.20;;;;;;5082345;28;20201;-68
2022/05/09 00:18:21;;;;;;;35.03;28.53;;;16.20;94.30;;;;;;5085471;28;20467;-69
2022/05/09 00:20:48;;;;;;;29.40;26.23;;;16.20;94.40;;;;;;5077742;28;20208;-69
2022/05/09 00:23:15;;;;;;;31.00;25.33;;;16.30;94.40;;;;;;5100073;28;20259;-69
2022/05/09 00:25:42;;;;;;;34.77;27.30;;;16.30;94.40;;;;;;5089223;28;20213;-69
2022/05/09 00:28:09;;;;;;;36.10;26.90;;;16.30;94.40;;;;;;5066487;28;20217;-69
2022/05/09 00:30:37;;;;;;;34.63;27.80;;;16.30;94.40;;;;;;5074703;28;20578;-68
2022/05/09 00:33:04;;;;;;;33.43;27.67;;;16.30;94.50;;;;;;5083751;28;20398;-68
2022/05/09 00:35:31;;;;;;;32.70;27.43;;;16.30;94.40;;;;;;5108065;28;20209;-68
2022/05/09 00:37:58;;;;;;;34.63;28.67;;;16.30;94.40;;;;;;5090985;28;20232;-68
2022/05/09 00:40:25;;;;;;;33.87;26.30;;;16.30;94.40;;;;;;5075333;28;20206;-68
2022/05/09 00:42:54;;;;;;;38.60;28.67;;;16.30;94.40;;;;;;5080519;28;20189;-68
2022/05/09 00:45:23;;;;;;;34.83;28.23;;;16.30;94.40;;;;;;5083085;28;20235;-68
2022/05/09 00:47:51;;;;;;;35.90;28.90;;;16.30;94.50;;;;;;5068789;28;20212;-68
2022/05/09 00:50:23;;;;;;;31.53;28.20;;;16.30;94.50;;;;;;5078792;28;20220;-68
2022/05/09 00:52:57;;;;;;;35.30;27.43;;;16.30;94.60;;;;;;5064819;28;20300;-68
2022/05/09 00:55:37;;;;;;;31.03;26.70;;;16.30;94.60;;;;;;5067254;28;20224;-68
2022/05/09 00:58:27;;;;;;;30.40;26.93;;;16.30;94.50;;;;;;5083602;28;20739;-68
2022/05/09 01:00:55;;;;;;;36.20;27.03;;;16.30;94.50;;;;;;5079899;28;20219;-68
2022/05/09 01:03:26;;;;;;;33.37;27.57;;;16.30;94.40;;;;;;5081980;28;20265;-68
2022/05/09 01:05:53;;;;;;;32.20;27.00;;;16.30;94.40;;;;;;5061548;28;20233;-68
2022/05/09 01:08:21;;;;;;;33.10;26.87;;;16.30;94.40;;;;;;5081268;28;20212;-69
2022/05/09 01:10:49;;;;;;;33.87;26.87;;;16.30;94.40;;;;;;5090657;28;20212;-69
2022/05/09 01:13:21;;;;;;;30.53;26.37;;;16.30;94.40;;;;;;5086961;28;20204;-69
2022/05/09 01:15:52;;;;;;;30.93;25.80;;;16.30;94.40;;;;;;5078257;28;20530;-69
2022/05/09 01:18:19;;;;;;;30.23;26.93;;;16.30;94.40;;;;;;5096122;28;20225;-69
2022/05/09 01:20:47;;;;;;;41.07;26.33;;;16.30;94.40;;;;;;5071832;28;20201;-69
2022/05/09 01:23:14;;;;;;;34.23;25.37;;;16.20;94.30;;;;;;5087249;28;20233;-69
2022/05/09 01:25:41;;;;;;;29.70;24.97;;;16.30;94.30;;;;;;5089793;28;20553;-69
2022/05/09 01:28:10;;;;;;;33.57;25.17;;;16.20;94.30;;;;;;5071542;28;20658;-69
2022/05/09 01:30:43;;;;;;;30.93;24.30;;;16.10;94.20;;;;;;5073351;28;20561;-69
2022/05/09 01:33:34;;;;;;;29.90;23.67;;;16.10;94.30;;;;;;5079021;28;20315;-68
2022/05/09 01:36:08;;;;;;;29.97;25.20;;;16.10;94.20;;;;;;5089994;28;20216;-68
2022/05/09 01:38:49;;;;;;;32.70;23.53;;;16.10;94.20;;;;;;5087902;28;20229;-68
2022/05/09 01:41:16;;;;;;;32.07;24.53;;;16.00;94.10;;;;;;5077768;28;20583;-68
2022/05/09 01:43:48;;;;;;;29.67;23.73;;;15.90;94.10;;;;;;5080292;28;20578;-68
2022/05/09 01:46:22;;;;;;;26.77;23.83;;;15.90;94.10;;;;;;5080647;28;20203;-69
2022/05/09 01:51:36;;;;;;;31.60;25.13;;;15.80;94.10;;;;;;5090544;28;20295;-68
2022/05/09 01:54:04;;;;;;;33.17;23.63;;;15.70;94.20;;;;;;5100868;28;20635;-68
2022/05/09 01:56:34;;;;;;;30.77;23.90;;;15.70;94.20;;;;;;5082677;28;20204;-68
2022/05/09 01:59:03;;;;;;;27.07;23.77;;;15.60;94.10;;;;;;5100106;28;20226;-68
2022/05/09 02:01:36;;;;;;;26.83;23.63;;;15.60;94.10;;;;;;5089904;28;20205;-68
2022/05/09 02:04:05;;;;;;;27.53;22.20;;;15.50;94.20;;;;;;5071246;28;20541;-68
2022/05/09 02:06:32;;;;;;;31.93;22.90;;;15.40;94.20;;;;;;5089115;28;20206;-68
2022/05/09 02:09:00;;;;;;;32.23;23.80;;;15.30;94.40;;;;;;5095287;28;20546;-68
2022/05/09 02:11:27;;;;;;;31.63;24.37;;;15.30;94.50;;;;;;5073672;28;20222;-68
2022/05/09 02:13:55;;;;;;;29.63;25.90;;;15.30;94.70;;;;;;5073551;28;20626;-68
2022/05/09 02:16:22;;;;;;;31.40;26.10;;;15.20;94.80;;;;;;5049924;28;20223;-68
2022/05/09 02:18:49;;;;;;;29.23;24.03;;;15.20;95.00;;;;;;5077044;28;20233;-68
2022/05/09 02:21:16;;;;;;;32.97;24.33;;;15.20;95.10;;;;;;5087416;28;20201;-68
2022/05/09 02:23:43;;;;;;;28.07;23.80;;;15.20;95.10;;;;;;5085073;28;20705;-68
2022/05/09 02:26:10;;;;;;;34.17;24.80;;;15.20;95.20;;;;;;5086813;28;20207;-68
2022/05/09 02:28:38;;;;;;;30.87;24.83;;;15.20;95.10;;;;;;5090203;28;20218;-68
2022/05/09 02:31:05;;;;;;;28.67;24.67;;;15.20;95.10;;;;;;5080777;28;20204;-69
2022/05/09 02:33:32;;;;;;;30.93;24.57;;;15.20;95.10;;;;;;5077043;28;20261;-69
2022/05/09 02:36:00;;;;;;;31.37;25.57;;;15.20;95.00;;;;;;5085079;28;20204;-69
2022/05/09 02:38:28;;;;;;;26.83;23.90;;;15.20;95.00;;;;;;5073034;28;20731;-68
2022/05/09 02:40:56;;;;;;;29.00;23.47;;;15.20;95.10;;;;;;5072990;28;20215;-68
2022/05/09 02:43:23;;;;;;;26.77;23.00;;;15.10;95.00;;;;;;5074267;28;20202;-68
2022/05/09 02:45:51;;;;;;;34.50;22.47;;;15.20;95.00;;;;;;5082766;28;20303;-68
2022/05/09 02:48:18;;;;;;;25.70;22.43;;;15.10;94.90;;;;;;5076501;28;20724;-68
2022/05/09 02:50:45;;;;;;;27.70;22.80;;;15.10;94.80;;;;;;5084034;28;20658;-68
2022/05/09 02:53:13;;;;;;;28.60;23.07;;;15.10;94.80;;;;;;5102197;28;20200;-69
2022/05/09 02:55:40;;;;;;;28.27;22.00;;;15.10;94.70;;;;;;5081678;28;20215;-69
2022/05/09 02:58:07;;;;;;;27.00;22.20;;;15.00;94.70;;;;;;5072363;28;20574;-69
2022/05/09 03:00:34;;;;;;;25.47;21.17;;;15.00;94.70;;;;;;5080403;28;20224;-69
2022/05/09 03:05:47;;;;;;;28.43;21.87;;;15.00;94.70;;;;;;5082225;28;20238;-69
2022/05/09 03:08:16;;;;;;;24.33;21.03;;;15.00;94.60;;;;;;5090650;28;20200;-69
2022/05/09 03:10:44;;;;;;;27.73;21.23;;;15.00;94.60;;;;;;5073340;28;20208;-69
2022/05/09 03:13:12;;;;;;;23.80;20.67;;;14.90;94.50;;;;;;5075588;28;20544;-69
2022/05/09 03:15:43;;;;;;;25.67;21.47;;;15.00;94.50;;;;;;5080562;28;20211;-69
2022/05/09 03:18:11;;;;;;;23.40;20.13;;;15.00;94.50;;;;;;5075530;28;20381;-69
2022/05/09 03:20:39;;;;;;;25.17;20.50;;;15.00;94.50;;;;;;5079893;28;20204;-69
2022/05/09 03:23:08;;;;;;;26.10;21.03;;;14.90;94.40;;;;;;5075689;28;20321;-69
2022/05/09 03:25:36;;;;;;;26.50;20.67;;;14.90;94.30;;;;;;5079540;28;20203;-68
2022/05/09 03:28:06;;;;;;;24.93;20.70;;;14.80;94.20;;;;;;5089296;28;20215;-68
2022/05/09 03:30:34;;;;;;;22.13;19.60;;;14.80;94.10;;;;;;5084185;28;20209;-68
2022/05/09 03:33:01;;;;;;;27.93;20.93;;;14.80;94.20;;;;;;5077655;28;20207;-68
2022/05/09 03:35:28;;;;;;;27.17;21.20;;;14.70;94.20;;;;;;5078999;28;20635;-68
2022/05/09 03:37:55;;;;;;;24.30;20.07;;;14.70;94.20;;;;;;5087467;28;20204;-68
2022/05/09 03:40:22;;;;;;;26.17;21.50;;;14.70;94.30;;;;;;5084512;28;20210;-69
2022/05/09 03:42:50;;;;;;;22.97;20.30;;;14.60;94.30;;;;;;5078626;28;20237;-69
2022/05/09 03:45:17;;;;;;;26.83;20.33;;;14.60;94.40;;;;;;5095919;28;20344;-69
2022/05/09 03:47:44;;;;;;;25.87;20.17;;;14.60;94.30;;;;;;5068489;28;20275;-69
2022/05/09 03:50:13;;;;;;;25.23;20.47;;;14.60;94.30;;;;;;5083704;28;20900;-69
2022/05/09 03:52:43;;;;;;;20.43;17.70;;;14.60;94.30;;;;;;5073639;28;20227;-69
2022/05/09 03:55:12;;;;;;;26.07;19.47;;;14.50;94.30;;;;;;5083874;28;20290;-69
2022/05/09 03:57:53;;;;;;;26.33;19.93;;;14.50;94.30;;;;;;5087853;28;20260;-69
2022/05/09 04:00:24;;;;;;;22.33;19.93;;;14.50;94.20;;;;;;5072494;28;20240;-69
2022/05/09 04:02:51;;;;;;;24.40;19.80;;;14.50;94.20;;;;;;5087280;28;20302;-69
2022/05/09 04:05:19;;;;;;;23.33;18.60;;;14.50;94.20;;;;;;5085102;28;20221;-69
2022/05/09 04:07:49;;;;;;;22.33;19.20;;;14.50;94.20;;;;;;5088019;28;20285;-69
2022/05/09 04:10:20;;;;;;;26.30;21.03;;;14.50;94.20;;;;;;5082763;28;20218;-69
2022/05/09 04:12:48;;;;;;;28.23;18.80;;;14.50;94.20;;;;;;5070261;28;20223;-69
2022/05/09 04:18:03;;;;;;;28.83;19.47;;;14.50;94.20;;;;;;5092912;28;20204;-69
2022/05/09 04:20:31;;;;;;;23.87;19.37;;;14.50;94.20;;;;;;5077808;28;20212;-69
2022/05/09 04:23:00;;;;;;;23.60;19.97;;;14.50;94.20;;;;;;5066495;28;20664;-69
2022/05/09 04:25:31;;;;;;;24.00;19.43;;;14.50;94.20;;;;;;5077626;28;20230;-69
2022/05/09 04:28:02;;;;;;;24.03;20.77;;;14.50;94.20;;;;;;5087773;28;20637;-69
2022/05/09 04:30:31;;;;;;;29.50;20.37;;;14.60;94.20;;;;;;5078290;28;20201;-69
2022/05/09 04:32:58;;;;;;;23.70;19.93;;;14.60;94.10;;;;;;5087355;28;20206;-69
2022/05/09 04:35:26;;;;;;;25.03;19.70;;;14.60;94.10;;;;;;5069463;28;20231;-69
2022/05/09 04:37:54;;;;;;;25.73;20.47;;;14.60;94.10;;;;;;5086440;28;20214;-69
2022/05/09 04:40:30;;;;;;;26.83;19.70;;;14.60;94.10;;;;;;5075027;28;20215;-69
2022/05/09 04:42:58;;;;;;;26.33;21.43;;;14.60;94.00;;;;;;5086424;28;20207;-69
2022/05/09 04:45:27;;;;;;;25.30;20.47;;;14.70;94.10;;;;;;5088092;28;20688;-69
2022/05/09 04:47:54;;;;;;;24.30;19.87;;;14.70;94.10;;;;;;5073513;28;20213;-69
2022/05/09 04:50:27;;;;;;;20.90;17.87;;;14.70;94.10;;;;;;5057119;28;20233;-69
2022/05/09 04:52:54;;;;;;;22.00;19.67;;;14.80;94.00;;;;;;5069546;28;20223;-69
2022/05/09 04:55:25;;;;;;;22.43;19.43;;;14.80;94.00;;;;;;5088931;28;20214;-69
2022/05/09 04:57:52;;;;;;;21.87;18.83;;;14.90;94.00;;;;;;5074734;28;20554;-69
2022/05/09 05:00:24;;;;;;;22.27;19.73;;;14.90;94.00;;;;;;5074088;28;20243;-69
2022/05/09 05:02:53;;;;;;;23.53;19.90;;;14.90;93.90;;;;;;5083650;28;20221;-69
2022/05/09 05:05:22;;;;;;;23.97;20.40;;;14.90;93.90;;;;;;5073174;28;20304;-69
2022/05/09 05:07:49;;;;;;;28.20;20.60;;;15.00;93.80;;;;;;5083969;28;20204;-69
2022/05/09 05:10:18;;;;;;;23.43;20.57;;;15.00;93.60;;;;;;5089447;28;20301;-69
2022/05/09 05:12:45;;;;;;;24.40;20.57;;;15.00;93.60;;;;;;5086159;28;20197;-69
2022/05/09 05:15:13;;;;;;;25.17;21.53;;;15.00;93.40;;;;;;5079820;28;20544;-69
2022/05/09 05:17:40;;;;;;;24.03;20.30;;;15.10;93.40;;;;;;5086371;28;20212;-68
2022/05/09 05:20:14;;;;;;;22.47;20.03;;;15.10;93.40;;;;;;5078449;28;20243;-68
2022/05/09 05:22:44;;;;;;;26.17;20.80;;;15.10;93.40;;;;;;5086030;28;20681;-68
2022/05/09 05:25:13;;;;;;;23.00;20.37;;;15.10;93.50;;;;;;5076862;28;20208;-68
2022/05/09 05:27:40;;;;;;;22.20;19.77;;;15.10;93.50;;;;;;5080937;28;20210;-68
2022/05/09 05:30:09;;;;;;;22.27;19.97;;;15.20;93.60;;;;;;5090496;28;20214;-68
2022/05/09 05:32:39;;;;;;;22.30;19.90;;;15.30;93.80;;;;;;5087320;28;20217;-68
2022/05/09 05:35:14;;;;;;;24.03;19.53;;;15.50;93.80;;;;;;5078987;28;20212;-68
2022/05/09 05:37:41;;;;;;;23.03;20.63;;;15.60;93.80;;;;;;5087077;28;20628;-68
2022/05/09 05:40:09;;;;;;;21.67;19.37;;;15.80;93.70;;;;;;5077071;28;20219;-68
2022/05/09 05:42:39;;;;;;;23.30;20.27;;;15.90;93.50;;;;;;5079125;28;20209;-68
2022/05/09 05:45:07;;;;;;;24.77;20.40;;;16.10;93.30;;;;;;5089809;28;20289;-68
2022/05/09 05:47:34;;;;;;;22.43;19.93;;;16.30;93.20;;;;;;5065799;28;20196;-68
2022/05/09 05:50:03;;;;;;;22.43;19.77;;;16.40;93.10;;;;;;5060485;28;20230;-68
2022/05/09 05:52:31;;;;;;;23.43;19.87;;;16.60;92.60;;;;;;5060535;28;20220;-68
2022/05/09 05:54:58;;;;;;;22.53;19.10;;;16.70;91.70;;;;;;5087580;28;20217;-68
2022/05/09 05:57:29;;;;;;;21.60;19.40;;;16.70;91.50;;;;;;5088585;28;20589;-68
2022/05/09 06:00:12;;;;;;;23.87;19.20;;;16.80;91.60;;;;;;5095137;28;20685;-68
2022/05/09 06:02:42;;;;;;;25.57;20.97;;;16.90;91.60;;;;;;5088562;28;20250;-68
2022/05/09 06:05:10;;;;;;;21.40;19.10;;;17.00;91.70;;;;;;5086483;28;20199;-68
2022/05/09 06:07:38;;;;;;;23.60;20.67;;;17.20;91.60;;;;;;5076418;28;20224;-68
2022/05/09 06:10:07;;;;;;;23.20;20.83;;;17.30;91.00;;;;;;5087647;28;20209;-68
2022/05/09 06:12:34;;;;;;;22.10;19.23;;;17.40;90.70;;;;;;5071916;28;20282;-68
2022/05/09 06:17:48;;;;;;;25.27;20.70;;;17.70;90.30;;;;;;5080265;28;20600;-69
2022/05/09 06:20:15;;;;;;;26.50;18.87;;;17.80;90.10;;;;;;5079051;28;20210;-69
2022/05/09 06:22:42;;;;;;;22.37;19.77;;;17.80;89.60;;;;;;5075445;28;20240;-69
2022/05/09 06:25:16;;;;;;;25.83;23.13;;;17.90;89.90;;;;;;5086653;28;20288;-69
2022/05/09 06:27:45;;;;;;;26.00;23.23;;;18.00;90.10;;;;;;5085355;28;20274;-69
2022/05/09 06:30:14;;;;;;;26.57;23.90;;;18.10;89.90;;;;;;5081077;28;20207;-69
2022/05/09 06:32:41;;;;;;;30.20;26.20;;;18.20;90.10;;;;;;5091721;28;20205;-69
2022/05/09 06:35:15;;;;;;;27.57;24.53;;;18.40;90.20;;;;;;5085557;28;20200;-69
2022/05/09 06:37:42;;;;;;;27.97;25.07;;;18.50;89.70;;;;;;5106056;28;20752;-69
2022/05/09 06:40:11;;;;;;;27.57;23.67;;;18.60;89.70;;;;;;5080167;28;20322;-69
2022/05/09 06:42:39;;;;;;;26.23;19.87;;;18.80;89.20;;;;;;5074082;28;20209;-69
2022/05/09 06:45:07;;;;;;;21.50;16.20;;;18.90;88.50;;;;;;5083972;28;20212;-69
2022/05/09 06:47:35;;;;;;;18.77;14.17;;;19.00;87.90;;;;;;5082287;28;20194;-69
2022/05/09 06:50:05;;;;;;;17.00;13.97;;;19.10;87.70;;;;;;5073909;28;20211;-69
2022/05/09 06:52:34;;;;;;;16.37;14.50;;;19.20;87.10;;;;;;5079138;28;20658;-69
2022/05/09 06:55:01;;;;;;;16.53;14.87;;;19.30;85.90;;;;;;5083901;28;20544;-68
2022/05/09 06:57:28;;;;;;;14.57;13.03;;;19.40;86.30;;;;;;5090289;28;20198;-68
2022/05/09 06:59:55;;;;;;;16.90;12.63;;;19.50;86.20;;;;;;5064760;28;20313;-68
2022/05/09 07:02:22;;;;;;;13.10;11.73;;;19.70;84.30;;;;;;5072540;28;20202;-69
2022/05/09 07:04:50;;;;;;;13.57;11.10;;;19.70;83.10;;;;;;5081433;28;20300;-69
2022/05/09 07:07:17;;;;;;;12.73;11.37;;;19.80;82.70;;;;;;5083658;28;20199;-69
2022/05/09 07:09:44;;;;;;;15.93;12.27;;;19.70;82.90;;;;;;5072630;28;20257;-69
2022/05/09 07:12:11;;;;;;;12.73;11.23;;;19.80;83.60;;;;;;5072539;28;20207;-69
2022/05/09 07:14:41;;;;;;;12.43;11.07;;;19.80;83.70;;;;;;5096204;28;20204;-69
2022/05/09 07:17:11;;;;;;;20.50;12.47;;;19.90;82.80;;;;;;5083403;28;20212;-69
2022/05/09 07:19:38;;;;;;;14.37;11.50;;;20.00;82.50;;;;;;5070167;28;20718;-69
2022/05/09 07:22:05;;;;;;;13.47;10.93;;;20.20;82.10;;;;;;5079050;28;20235;-69
2022/05/09 07:24:32;;;;;;;31.07;22.73;;;20.40;81.30;;;;;;5068582;28;20201;-69
2022/05/09 07:26:59;;;;;;;1840.87;999.90;;;20.60;81.00;;;;;;5108747;28;20269;-69
2022/05/09 07:29:27;;;;;;;25.90;23.13;;;20.80;80.00;;;;;;5076207;28;20209;-69
2022/05/09 07:31:54;;;;;;;1999.90;999.90;;;21.10;78.90;;;;;;5079469;28;20304;-69
2022/05/09 07:34:21;;;;;;;47.77;35.57;;;21.20;78.10;;;;;;5076891;28;20205;-69
2022/05/09 07:36:48;;;;;;;16.80;12.90;;;21.40;78.40;;;;;;5107344;28;20207;-69
2022/05/09 07:39:15;;;;;;;14.67;11.00;;;21.50;77.80;;;;;;5090635;28;20208;-69
2022/05/09 07:41:42;;;;;;;13.87;10.83;;;21.70;75.80;;;;;;5072626;28;20214;-69
2022/05/09 07:44:10;;;;;;;11.17;10.07;;;21.80;74.20;;;;;;5091089;28;20224;-69
2022/05/09 07:46:37;;;;;;;12.10;10.17;;;22.00;75.30;;;;;;5085316;28;20532;-69
2022/05/09 07:49:12;;;;;;;13.57;10.77;;;22.20;74.50;;;;;;5108497;28;20596;-69
2022/05/09 07:51:39;;;;;;;11.07;9.87;;;22.40;73.90;;;;;;5084541;28;20652;-69
2022/05/09 07:54:09;;;;;;;10.77;9.67;;;22.60;74.10;;;;;;5079457;28;20212;-69
2022/05/09 07:56:43;;;;;;;13.00;10.13;;;22.70;73.00;;;;;;5055241;28;20642;-69
2022/05/09 07:59:11;;;;;;;9.57;8.67;;;22.90;70.30;;;;;;5091759;28;20219;-69
2022/05/09 08:01:39;;;;;;;11.47;9.70;;;23.00;70.20;;;;;;5082547;28;20258;-69
2022/05/09 08:04:06;;;;;;;10.67;9.50;;;23.20;70.20;;;;;;5079161;28;20198;-69
2022/05/09 08:06:33;;;;;;;10.10;8.60;;;23.30;69.60;;;;;;5087883;28;20274;-69
2022/05/09 08:09:04;;;;;;;9.87;8.87;;;23.40;68.80;;;;;;5092887;28;20277;-69
2022/05/09 08:11:31;;;;;;;11.30;8.97;;;23.50;66.10;;;;;;5075218;28;20546;-69
2022/05/09 08:13:58;;;;;;;11.93;9.33;;;23.60;65.70;;;;;;5060833;28;20659;-69
2022/05/09 08:16:29;;;;;;;9.63;8.77;;;23.70;65.30;;;;;;5099920;28;20200;-69
2022/05/09 08:18:56;;;;;;;11.77;10.47;;;23.70;64.80;;;;;;5076382;28;20221;-69
2022/05/09 08:21:24;;;;;;;12.80;9.87;;;23.80;65.20;;;;;;5066951;28;20344;-69
2022/05/09 08:23:51;;;;;;;11.00;9.90;;;23.80;65.10;;;;;;5078269;28;20255;-69
2022/05/09 08:26:22;;;;;;;13.67;9.63;;;23.80;65.10;;;;;;5101038;28;20197;-69
2022/05/09 08:28:50;;;;;;;13.47;10.17;;;23.90;65.00;;;;;;5076956;28;20194;-69
2022/05/09 08:31:18;;;;;;;9.73;8.73;;;23.80;64.30;;;;;;5066489;28;20642;-69
2022/05/09 08:33:49;;;;;;;11.83;9.27;;;23.80;65.20;;;;;;5108272;28;20266;-69
2022/05/09 08:39:04;;;;;;;11.17;9.80;;;23.70;65.90;;;;;;5077018;28;20270;-69
2022/05/09 08:42:07;;;;;;;14.27;9.23;;;23.70;66.10;;;;;;5074329;28;20655;-69
2022/05/09 08:45:12;;;;;;;12.33;9.70;;;23.70;65.90;;;;;;5073085;28;20247;-68
2022/05/09 08:48:01;;;;;;;11.33;9.17;;;23.70;66.50;;;;;;5078960;28;20628;-69
2022/05/09 08:50:37;;;;;;;10.80;9.70;;;23.80;65.50;;;;;;5079159;28;20216;-69
2022/05/09 08:53:08;;;;;;;10.40;9.30;;;23.90;65.10;;;;;;5089035;28;20214;-68
2022/05/09 08:55:41;;;;;;;14.87;9.60;;;23.90;62.80;;;;;;5089853;28;20553;-69
2022/05/09 08:58:19;;;;;;;9.43;8.53;;;23.90;62.10;;;;;;5089272;28;20193;-69
2022/05/09 09:00:49;;;;;;;12.93;9.57;;;23.90;63.30;;;;;;5071901;28;20705;-68
2022/05/09 09:03:29;;;;;;;10.30;8.97;;;23.90;63.60;;;;;;5105360;28;20212;-68
2022/05/09 09:06:19;;;;;;;9.97;8.90;;;23.90;61.80;;;;;;5079870;28;20205;-68
2022/05/09 09:09:14;;;;;;;13.07;9.63;;;23.90;61.50;;;;;;5091088;28;20209;-68
2022/05/09 09:11:41;;;;;;;9.20;8.30;;;23.90;60.80;;;;;;5103982;28;20636;-68
2022/05/09 09:14:17;;;;;;;8.77;7.87;;;23.90;61.80;;;;;;5073772;28;20205;-68
2022/05/09 09:17:10;;;;;;;9.93;8.93;;;23.90;60.20;;;;;;5092646;28;20192;-68
2022/05/09 09:19:57;;;;;;;11.43;8.63;;;24.00;59.80;;;;;;5076146;28;20212;-68
2022/05/09 09:22:58;;;;;;;11.20;9.03;;;24.10;60.50;;;;;;5074731;28;20244;-68
2022/05/09 09:25:48;;;;;;;11.40;9.17;;;24.10;60.20;;;;;;5073200;28;20241;-68
2022/05/09 09:28:18;;;;;;;9.73;8.67;;;24.10;60.40;;;;;;5088905;28;20284;-68
2022/05/09 09:30:46;;;;;;;11.17;8.00;;;24.20;60.50;;;;;;5089652;28;20508;-69
2022/05/09 09:33:17;;;;;;;11.57;8.87;;;24.30;61.20;;;;;;5080821;28;20194;-69
2022/05/09 09:35:54;;;;;;;9.27;8.20;;;24.50;59.70;;;;;;5077305;28;20206;-69
2022/05/09 09:38:21;;;;;;;9.20;8.30;;;24.60;60.10;;;;;;5087651;28;20212;-68
2022/05/09 09:40:50;;;;;;;9.33;8.50;;;24.80;59.10;;;;;;5089151;28;20711;-68
2022/05/09 09:43:19;;;;;;;11.43;8.63;;;25.00;59.70;;;;;;5080055;28;20198;-69
2022/05/09 09:46:00;;;;;;;10.57;8.93;;;25.10;59.10;;;;;;5064509;28;20294;-69
2022/05/09 09:48:30;;;;;;;12.23;9.17;;;25.20;57.70;;;;;;5062536;28;20201;-69
2022/05/09 09:51:07;;;;;;;10.00;8.47;;;25.20;58.90;;;;;;5078617;28;20209;-69
2022/05/09 09:53:51;;;;;;;9.73;8.70;;;25.20;59.20;;;;;;5083132;28;20207;-69
2022/05/09 09:56:21;;;;;;;10.33;8.63;;;25.30;59.20;;;;;;5077545;28;20205;-69
2022/05/09 09:58:50;;;;;;;11.33;9.10;;;25.40;57.10;;;;;;5087644;28;20209;-69
2022/05/09 10:01:30;;;;;;;8.93;8.03;;;25.40;58.10;;;;;;5071137;28;20660;-69
2022/05/09 10:04:09;;;;;;;12.37;8.13;;;25.30;58.90;;;;;;5079507;28;20201;-69
2022/05/09 10:07:12;;;;;;;10.10;8.00;;;25.50;58.50;;;;;;5077688;28;20205;-69
2022/05/09 10:09:45;;;;;;;10.20;8.87;;;25.60;58.30;;;;;;5085041;28;20241;-69
2022/05/09 10:12:22;;;;;;;11.13;8.90;;;25.70;57.10;;;;;;5080089;28;20211;-69
2022/05/09 10:14:50;;;;;;;9.97;8.93;;;25.80;58.50;;;;;;5089244;28;20193;-69
2022/05/09 10:17:19;;;;;;;13.07;9.70;;;26.00;57.50;;;;;;5099831;28;20216;-69
2022/05/09 10:19:47;;;;;;;15.90;9.23;;;26.00;57.50;;;;;;5076111;28;20192;-69
2022/05/09 10:25:26;;;;;;;10.13;9.03;;;25.70;55.40;;;;;;5074072;28;20304;-69
2022/05/09 10:28:07;;;;;;;9.60;8.70;;;25.40;56.60;;;;;;5081998;28;20200;-69
2022/05/09 10:30:38;;;;;;;9.07;8.27;;;25.30;58.40;;;;;;5073410;28;20235;-69
2022/05/09 10:33:18;;;;;;;11.20;7.83;;;25.20;57.70;;;;;;5082101;28;20202;-69
2022/05/09 10:35:51;;;;;;;8.30;6.60;;;25.10;57.50;;;;;;5074893;28;20666;-69
2022/05/09 10:38:25;;;;;;;9.27;6.97;;;25.10;56.70;;;;;;5064491;28;20223;-69
2022/05/09 10:41:03;;;;;;;8.47;6.33;;;25.30;57.90;;;;;;5074315;28;20237;-69
2022/05/09 10:43:38;;;;;;;10.07;8.17;;;25.70;57.30;;;;;;5082722;28;20219;-69
2022/05/09 10:46:11;;;;;;;10.00;8.63;;;26.00;54.90;;;;;;5090441;28;20261;-69
2022/05/09 10:48:41;;;;;;;8.43;7.63;;;25.90;55.30;;;;;;5065815;28;20670;-69
2022/05/09 10:51:21;;;;;;;7.83;7.10;;;25.80;54.60;;;;;;5090323;28;20198;-69
2022/05/09 10:54:33;;;;;;;8.47;7.63;;;25.70;56.30;;;;;;5084164;28;20233;-69
2022/05/09 10:57:08;;;;;;;10.40;7.47;;;25.50;56.20;;;;;;5079924;28;20199;-69
2022/05/09 11:00:11;;;;;;;8.70;6.67;;;25.50;55.70;;;;;;5081767;28;20218;-69
2022/05/09 11:02:42;;;;;;;8.03;5.93;;;25.40;53.50;;;;;;5085478;28;20213;-68
2022/05/09 11:05:09;;;;;;;7.93;7.13;;;25.40;55.20;;;;;;5088218;28;20250;-68
2022/05/09 11:07:47;;;;;;;10.40;6.43;;;25.50;55.20;;;;;;5072856;28;20198;-68
2022/05/09 11:10:41;;;;;;;11.80;7.00;;;25.60;54.60;;;;;;5092485;28;20280;-68
2022/05/09 11:13:14;;;;;;;8.63;7.83;;;25.70;54.80;;;;;;5068254;28;20652;-68
2022/05/09 11:16:07;;;;;;;7.67;6.97;;;26.00;55.00;;;;;;5092281;28;20203;-68
2022/05/09 11:19:01;;;;;;;11.70;7.67;;;26.20;54.50;;;;;;5066272;28;20218;-68
2022/05/09 11:21:55;;;;;;;8.70;7.80;;;26.10;56.00;;;;;;5087216;28;20249;-68
2022/05/09 11:24:56;;;;;;;8.50;6.10;;;26.10;55.00;;;;;;5085918;28;20708;-69
2022/05/09 11:27:36;;;;;;;9.10;6.27;;;26.00;53.80;;;;;;5079228;28;20222;-68
2022/05/09 11:30:53;;;;;;;9.40;6.60;;;26.00;52.30;;;;;;5089805;28;20216;-68
2022/05/09 11:33:41;;;;;;;9.30;6.83;;;25.90;52.70;;;;;;5061963;28;20218;-68
2022/05/09 11:36:26;;;;;;;9.33;7.13;;;25.90;54.70;;;;;;5080781;28;20216;-68
2022/05/09 11:38:59;;;;;;;8.27;6.47;;;25.90;54.10;;;;;;5084049;28;20197;-68
2022/05/09 11:43:27;;;;;;;10.77;6.70;;;25.90;54.00;;;;;;5108927;28;20625;-68
2022/05/09 11:45:01;;;;;;;9.27;6.53;;;25.90;55.00;;;;;;5086946;28;20701;-68
2022/05/09 11:47:44;;;;;;;9.77;6.93;;;26.00;52.40;;;;;;5084195;28;20211;-68
2022/05/09 11:50:39;;;;;;;6.97;6.03;;;26.30;53.60;;;;;;5088274;28;20203;-68
2022/05/09 11:53:07;;;;;;;9.73;7.00;;;26.50;53.10;;;;;;5107340;28;20193;-68
2022/05/09 11:55:37;;;;;;;7.57;6.70;;;26.80;51.20;;;;;;5064116;28;20717;-68
2022/05/09 11:58:05;;;;;;;9.97;7.07;;;26.80;51.90;;;;;;5088152;28;20201;-68
2022/05/09 12:00:38;;;;;;;11.70;6.37;;;26.80;51.40;;;;;;5088422;28;20221;-68
2022/05/09 12:03:09;;;;;;;6.80;6.07;;;26.80;50.50;;;;;;5097524;28;20235;-68
2022/05/09 12:05:38;;;;;;;10.83;6.63;;;26.80;49.90;;;;;;5081186;28;20203;-68
2022/05/09 12:08:08;;;;;;;9.40;6.47;;;26.70;49.50;;;;;;5079059;28;20210;-68
2022/05/09 12:10:38;;;;;;;9.27;6.13;;;26.70;49.90;;;;;;5088099;28;20224;-68
2022/05/09 12:13:07;;;;;;;8.60;6.17;;;26.60;50.80;;;;;;5072341;28;20250;-68
2022/05/09 12:15:42;;;;;;;7.53;6.77;;;26.40;51.40;;;;;;5103151;28;20268;-68
2022/05/09 12:18:30;;;;;;;7.40;6.60;;;26.20;51.70;;;;;;5078512;28;20292;-68
2022/05/09 12:21:19;;;;;;;7.80;5.83;;;26.00;50.70;;;;;;5089517;28;20693;-68
2022/05/09 12:23:50;;;;;;;9.93;7.20;;;25.90;53.30;;;;;;5079422;28;20241;-69
2022/05/09 12:26:30;;;;;;;7.93;5.53;;;26.00;54.40;;;;;;5080408;28;20603;-68
2022/05/09 12:29:30;;;;;;;10.07;6.10;;;26.20;53.70;;;;;;5080321;28;20200;-68
2022/05/09 12:32:02;;;;;;;8.17;5.57;;;26.30;51.10;;;;;;5062158;28;20222;-68
2022/05/09 12:34:43;;;;;;;11.40;5.87;;;26.40;52.10;;;;;;5066925;28;20212;-68
2022/05/09 12:37:19;;;;;;;7.27;6.07;;;26.50;50.50;;;;;;5077589;28;20217;-68
2022/05/09 12:39:55;;;;;;;9.80;6.03;;;26.60;51.70;;;;;;5081191;28;20224;-68
2022/05/09 12:42:47;;;;;;;8.77;6.60;;;26.60;52.10;;;;;;5090117;28;20240;-68
2022/05/09 12:45:18;;;;;;;8.30;5.47;;;26.70;53.00;;;;;;5085674;28;20202;-68
2022/05/09 12:47:47;;;;;;;8.77;5.53;;;26.80;51.70;;;;;;5080014;28;20220;-68
2022/05/09 12:50:44;;;;;;;6.87;5.50;;;26.80;49.30;;;;;;5083158;28;20271;-68
2022/05/09 12:53:17;;;;;;;6.73;6.03;;;26.70;50.30;;;;;;5090965;28;20214;-68
2022/05/09 12:55:56;;;;;;;7.77;5.67;;;26.70;51.70;;;;;;5084130;28;20212;-68
2022/05/09 12:58:33;;;;;;;6.77;6.07;;;26.70;51.70;;;;;;5058859;28;20602;-68
2022/05/09 13:01:06;;;;;;;7.47;6.00;;;26.70;49.10;;;;;;5071889;28;20353;-68
2022/05/09 13:04:02;;;;;;;6.33;5.30;;;26.70;52.00;;;;;;5086381;28;20296;-68
2022/05/09 13:06:44;;;;;;;9.30;5.83;;;26.70;50.30;;;;;;5081709;28;20209;-68
2022/05/09 13:09:24;;;;;;;5.93;5.13;;;26.70;51.40;;;;;;5105074;28;20213;-68
2022/05/09 13:12:01;;;;;;;6.33;5.33;;;26.70;51.70;;;;;;5087192;28;20221;-68
2022/05/09 13:14:46;;;;;;;9.93;5.23;;;26.70;51.20;;;;;;5073108;28;20209;-68
2022/05/09 13:17:38;;;;;;;6.33;5.67;;;26.70;48.70;;;;;;5073896;28;20309;-68